createdAt,value
2022-10-10T00:00:50.315Z,101080.31
2022-10-10T00:03:18.413Z,101094.13
2022-10-10T00:05:45.603Z,101082.06
2022-10-10T00:08:12.401Z,101097.59
2022-10-10T00:10:39.151Z,101088.97
2022-10-10T00:13:06.376Z,101029.09
2022-10-10T00:15:33.174Z,101081.13
2022-10-10T00:18:00.065Z,101095.88
2022-10-10T00:20:26.912Z,101076.72
2022-10-10T00:22:53.872Z,101072.44
2022-10-10T00:25:21.612Z,101024.97
2022-10-10T00:27:48.316Z,101080.38
2022-10-10T00:30:14.996Z,101083.03
2022-10-10T00:32:41.674Z,101074.38
2022-10-10T00:35:08.640Z,101038.81
2022-10-10T00:37:35.239Z,101064.84
2022-10-10T00:40:02.291Z,101084.06
2022-10-10T00:42:32.544Z,101092.66
2022-10-10T00:45:24.154Z,101090.88
2022-10-10T00:47:53.311Z,101090.97
2022-10-10T00:50:22.735Z,101084.94
2022-10-10T00:52:50.357Z,101085.72
2022-10-10T00:55:18.051Z,101036.47
2022-10-10T00:57:44.981Z,101075.28
2022-10-10T01:00:11.929Z,101072.88
2022-10-10T01:02:39.092Z,101078.16
2022-10-10T01:05:06.052Z,101084.94
2022-10-10T01:07:34.041Z,101083.28
2022-10-10T01:10:06.834Z,101097.28
2022-10-10T01:13:18.064Z,101091.31
2022-10-10T01:16:10.825Z,101086.13
2022-10-10T01:19:12.887Z,101085.31
2022-10-10T01:21:48.199Z,101086.13
2022-10-10T01:24:30.079Z,101085.28
2022-10-10T01:27:16.026Z,101092.22
2022-10-10T01:29:51.395Z,101091.38
2022-10-10T01:35:27.867Z,101083.56
2022-10-10T01:38:02.656Z,101075.78
2022-10-10T01:40:32.201Z,101084.50
2022-10-10T01:43:03.351Z,101082.66
2022-10-10T01:45:31.556Z,101062.97
2022-10-10T01:48:04.133Z,101069.00
2022-10-10T01:50:35.936Z,101069.91
2022-10-10T01:53:09.910Z,101073.16
2022-10-10T01:55:55.289Z,101067.78
2022-10-10T01:58:46.970Z,101066.25
2022-10-10T02:01:32.003Z,101059.38
2022-10-10T02:04:23.330Z,101055.09
2022-10-10T02:06:56.827Z,101047.22
2022-10-10T02:09:37.454Z,101051.47
2022-10-10T02:12:05.071Z,101046.31
2022-10-10T02:14:41.338Z,101049.78
2022-10-10T02:17:12.035Z,101029.13
2022-10-10T02:19:42.939Z,101028.31
2022-10-10T02:22:10.739Z,101046.47
2022-10-10T02:24:37.500Z,101044.78
2022-10-10T02:27:11.549Z,101020.56
2022-10-10T02:29:40.594Z,101052.63
2022-10-10T02:32:32.896Z,100925.31
2022-10-10T02:35:07.205Z,101041.41
2022-10-10T02:37:36.260Z,101023.31
2022-10-10T02:40:05.838Z,101052.63
2022-10-10T02:42:33.783Z,101045.72
2022-10-10T02:45:00.892Z,101018.69
2022-10-10T02:47:27.623Z,101021.28
2022-10-10T02:49:54.276Z,101043.94
2022-10-10T02:52:20.982Z,101026.66
2022-10-10T02:54:47.642Z,101045.63
2022-10-10T02:57:14.288Z,100959.94
2022-10-10T02:59:41.136Z,101020.47
2022-10-10T03:02:08.420Z,101048.16
2022-10-10T03:04:36.171Z,100959.25
2022-10-10T03:07:04.267Z,100998.88
2022-10-10T03:09:31.001Z,101040.44
2022-10-10T03:11:57.608Z,100979.94
2022-10-10T03:14:24.309Z,101031.84
2022-10-10T03:16:50.952Z,101015.47
2022-10-10T03:19:17.675Z,101041.44
2022-10-10T03:21:44.551Z,101049.38
2022-10-10T03:24:11.283Z,100994.03
2022-10-10T03:26:37.996Z,100895.25
2022-10-10T03:29:05.235Z,100951.41
2022-10-10T03:31:31.989Z,101027.94
2022-10-10T03:33:58.828Z,100904.19
2022-10-10T03:36:25.578Z,100980.16
2022-10-10T03:38:52.203Z,100983.72
2022-10-10T03:41:18.845Z,100994.25
2022-10-10T03:43:45.499Z,101000.25
2022-10-10T03:46:15.932Z,101030.50
2022-10-10T03:48:43.187Z,101041.78
2022-10-10T03:51:09.944Z,101035.84
2022-10-10T03:53:37.177Z,101029.09
2022-10-10T03:56:03.965Z,101066.22
2022-10-10T03:58:30.678Z,101053.19
2022-10-10T04:00:59.666Z,101020.19
2022-10-10T04:03:26.755Z,101006.66
2022-10-10T04:05:53.935Z,101037.75
2022-10-10T04:08:20.711Z,101007.34
2022-10-10T04:10:54.765Z,101057.59
2022-10-10T04:13:21.817Z,101017.00
2022-10-10T04:15:53.275Z,101056.91
2022-10-10T04:18:20.053Z,101043.94
2022-10-10T04:20:46.662Z,100988.56
2022-10-10T04:23:14.526Z,101030.81
2022-10-10T04:25:42.016Z,101044.97
2022-10-10T04:28:12.090Z,101039.78
2022-10-10T04:30:38.768Z,101023.25
2022-10-10T04:33:05.540Z,101029.41
2022-10-10T04:35:32.387Z,101021.72
2022-10-10T04:37:59.063Z,101000.78
2022-10-10T04:40:26.976Z,101030.34
2022-10-10T04:42:54.819Z,101053.88
2022-10-10T04:45:21.556Z,101046.91
2022-10-10T04:47:48.177Z,100980.31
2022-10-10T04:50:14.782Z,101060.88
2022-10-10T04:52:41.384Z,101074.84
2022-10-10T04:55:08.295Z,101060.97
2022-10-10T04:57:34.911Z,101044.50
2022-10-10T05:00:01.912Z,101052.19
2022-10-10T05:02:28.563Z,101042.66
2022-10-10T05:04:55.349Z,101054.75
2022-10-10T05:07:22.001Z,101043.38
2022-10-10T05:09:48.629Z,101019.94
2022-10-10T05:12:15.436Z,101019.13
2022-10-10T05:14:47.212Z,101054.59
2022-10-10T05:17:15.387Z,101055.34
2022-10-10T05:19:42.002Z,101045.69
2022-10-10T05:22:08.639Z,101030.84
2022-10-10T05:24:35.323Z,100992.69
2022-10-10T05:27:01.913Z,101031.66
2022-10-10T05:29:28.702Z,101018.50
2022-10-10T05:31:55.745Z,101055.78
2022-10-10T05:34:22.368Z,101033.97
2022-10-10T05:36:49.023Z,100987.19
2022-10-10T05:39:15.855Z,101005.31
2022-10-10T05:41:42.489Z,101042.41
2022-10-10T05:44:10.154Z,101058.00
2022-10-10T05:46:36.855Z,101000.66
2022-10-10T05:49:03.566Z,101064.53
2022-10-10T05:51:30.237Z,101040.19
2022-10-10T05:53:57.482Z,101033.00
2022-10-10T05:56:24.820Z,101002.69
2022-10-10T05:58:51.690Z,101047.59
2022-10-10T06:01:18.693Z,101060.56
2022-10-10T06:03:45.371Z,100994.53
2022-10-10T06:06:12.008Z,101063.88
2022-10-10T06:08:38.639Z,101054.34
2022-10-10T06:11:11.250Z,101060.09
2022-10-10T06:13:39.007Z,101075.69
2022-10-10T06:16:05.801Z,101074.50
2022-10-10T06:18:32.422Z,101071.16
2022-10-10T06:21:05.217Z,101058.81
2022-10-10T06:23:32.408Z,101025.97
2022-10-10T06:25:59.450Z,101031.16
2022-10-10T06:28:26.202Z,101067.69
2022-10-10T06:30:52.985Z,101038.00
2022-10-10T06:33:19.827Z,101010.03
2022-10-10T06:35:48.686Z,101029.09
2022-10-10T06:38:16.752Z,101044.13
2022-10-10T06:40:44.668Z,101073.47
2022-10-10T06:43:12.837Z,101077.25
2022-10-10T06:45:41.665Z,101072.31
2022-10-10T06:48:09.510Z,101073.81
2022-10-10T06:50:36.268Z,101073.69
2022-10-10T06:53:03.110Z,101047.28
2022-10-10T06:55:29.719Z,101049.66
2022-10-10T06:57:57.291Z,101071.56
2022-10-10T07:00:24.519Z,101049.16
2022-10-10T07:02:52.481Z,101074.03
2022-10-10T07:05:19.496Z,101063.97
2022-10-10T07:07:46.241Z,101072.78
2022-10-10T07:10:14.601Z,101079.00
2022-10-10T07:12:44.730Z,101066.47
2022-10-10T07:15:12.346Z,101041.28
2022-10-10T07:17:39.283Z,101053.50
2022-10-10T07:20:06.574Z,101034.91
2022-10-10T07:22:33.220Z,101054.94
2022-10-10T07:24:59.849Z,101042.25
2022-10-10T07:27:26.483Z,101050.16
2022-10-10T07:29:53.084Z,101057.00
2022-10-10T07:32:19.699Z,101031.25
2022-10-10T07:34:46.327Z,101050.75
2022-10-10T07:37:12.911Z,101060.81
2022-10-10T07:39:39.591Z,101036.13
2022-10-10T07:42:06.229Z,101040.63
2022-10-10T07:44:34.708Z,101054.63
2022-10-10T07:47:01.745Z,101040.34
2022-10-10T07:49:28.423Z,101043.25
2022-10-10T07:51:58.847Z,101054.75
2022-10-10T07:54:28.841Z,101008.84
2022-10-10T07:56:55.500Z,101048.56
2022-10-10T07:59:23.266Z,101049.72
2022-10-10T08:01:50.365Z,100993.16
2022-10-10T08:04:17.745Z,101058.00
2022-10-10T08:06:44.484Z,101032.25
2022-10-10T08:09:11.499Z,101062.50
2022-10-10T08:11:38.148Z,101030.09
2022-10-10T08:14:04.784Z,101056.22
2022-10-10T08:16:31.613Z,101063.53
2022-10-10T08:18:58.544Z,101018.06
2022-10-10T08:21:25.193Z,101051.41
2022-10-10T08:23:51.810Z,101034.28
2022-10-10T08:26:20.112Z,101050.97
2022-10-10T08:28:48.621Z,101043.66
2022-10-10T08:31:18.216Z,101062.38
2022-10-10T08:33:46.162Z,101049.59
2022-10-10T08:36:16.238Z,101034.97
2022-10-10T08:38:43.865Z,101046.22
2022-10-10T08:41:31.872Z,101054.59
2022-10-10T08:44:02.520Z,101028.25
2022-10-10T08:46:44.806Z,101044.25
2022-10-10T08:49:49.817Z,101043.22
2022-10-10T08:52:25.565Z,101043.66
2022-10-10T08:54:58.127Z,101025.88
2022-10-10T08:57:31.660Z,101000.50
2022-10-10T09:00:06.338Z,100982.00
2022-10-10T09:02:55.883Z,101016.75
2022-10-10T09:05:45.576Z,101012.88
2022-10-10T09:08:26.812Z,101013.81
2022-10-10T09:11:06.505Z,101017.09
2022-10-10T09:13:38.134Z,100956.44
2022-10-10T09:16:22.964Z,101003.38
2022-10-10T09:19:17.504Z,101020.03
2022-10-10T09:21:46.008Z,101011.16
2022-10-10T09:24:34.324Z,101026.50
2022-10-10T09:27:06.163Z,101023.44
2022-10-10T09:29:41.964Z,101027.88
2022-10-10T09:32:36.092Z,101029.97
2022-10-10T09:35:14.392Z,101031.78
2022-10-10T09:37:47.514Z,101031.53
2022-10-10T09:40:17.804Z,101023.81
2022-10-10T09:42:45.221Z,101035.53
2022-10-10T09:45:22.332Z,101029.34
2022-10-10T09:47:53.277Z,101012.22
2022-10-10T09:50:20.396Z,101034.28
2022-10-10T09:52:47.538Z,101006.63
2022-10-10T09:55:30.728Z,101002.19
2022-10-10T09:58:04.512Z,101031.69
2022-10-10T10:00:36.689Z,101026.91
2022-10-10T10:03:10.949Z,101029.00
2022-10-10T10:05:38.953Z,101031.78
2022-10-10T10:08:06.752Z,101013.50
2022-10-10T10:10:36.155Z,100998.19
2022-10-10T10:13:03.180Z,101010.66
2022-10-10T10:15:32.247Z,101022.22
2022-10-10T10:18:17.073Z,101016.06
2022-10-10T10:20:46.461Z,101018.94
2022-10-10T10:23:26.961Z,101015.63
2022-10-10T10:26:00.145Z,101019.97
2022-10-10T10:28:27.670Z,101014.09
2022-10-10T10:30:57.177Z,101003.47
2022-10-10T10:33:26.724Z,101005.84
2022-10-10T10:36:46.219Z,101000.06
2022-10-10T10:39:33.489Z,100994.97
2022-10-10T10:42:09.185Z,100976.31
2022-10-10T10:44:47.760Z,101003.56
2022-10-10T10:47:34.617Z,100994.91
2022-10-10T10:50:26.968Z,100994.44
2022-10-10T10:53:22.247Z,100963.38
2022-10-10T10:55:48.811Z,100986.72
2022-10-10T11:01:44.707Z,100985.00
2022-10-10T11:05:23.794Z,100972.69
2022-10-10T11:07:28.198Z,100965.28
2022-10-10T11:10:14.433Z,100953.28
2022-10-10T11:12:50.146Z,100969.25
2022-10-10T11:15:30.765Z,100969.81
2022-10-10T11:18:19.204Z,100965.56
2022-10-10T11:21:04.975Z,100966.63
2022-10-10T11:23:38.916Z,100933.03
2022-10-10T11:26:12.938Z,100925.00
2022-10-10T11:28:51.433Z,100932.59
2022-10-10T11:31:23.485Z,100914.00
2022-10-10T11:33:58.692Z,100903.03
2022-10-10T11:36:35.203Z,100939.59
2022-10-10T11:39:15.362Z,100932.94
2022-10-10T11:41:58.142Z,100934.66
2022-10-10T11:44:36.716Z,100926.75
2022-10-10T11:47:18.932Z,100909.03
2022-10-10T11:50:02.620Z,100925.03
2022-10-10T11:52:58.767Z,100924.59
2022-10-10T11:56:13.739Z,100911.72
2022-10-10T11:58:44.543Z,100896.44
2022-10-10T12:01:20.607Z,100917.28
2022-10-10T12:03:47.520Z,100907.81
2022-10-10T12:06:14.137Z,100918.31
2022-10-10T12:08:47.823Z,100903.34
2022-10-10T12:11:28.306Z,100903.91
2022-10-10T12:14:09.675Z,100914.78
2022-10-10T12:16:37.784Z,100894.75
2022-10-10T12:19:07.333Z,100908.75
2022-10-10T12:21:54.039Z,100903.88
2022-10-10T12:24:21.826Z,100894.84
2022-10-10T12:26:57.511Z,100901.19
2022-10-10T12:29:50.720Z,100892.84
2022-10-10T12:32:20.849Z,100890.41
2022-10-10T12:34:50.347Z,100897.31
2022-10-10T12:37:34.486Z,100900.63
2022-10-10T12:40:07.315Z,100891.88
2022-10-10T12:42:46.135Z,100897.31
2022-10-10T12:45:31.176Z,100891.91
2022-10-10T12:48:05.825Z,100862.06
2022-10-10T12:50:41.929Z,100868.53
2022-10-10T12:53:21.270Z,100871.84
2022-10-10T12:55:50.107Z,100886.69
2022-10-10T12:58:27.037Z,100886.66
2022-10-10T13:01:18.888Z,100881.56
2022-10-10T13:03:48.321Z,100869.53
2022-10-10T13:06:35.960Z,100881.84
2022-10-10T13:09:10.720Z,100833.16
2022-10-10T13:12:03.836Z,100885.72
2022-10-10T13:14:41.307Z,100890.13
2022-10-10T13:17:28.213Z,100885.78
2022-10-10T13:19:57.378Z,100864.91
2022-10-10T13:22:25.303Z,100858.63
2022-10-10T13:24:52.679Z,100873.13
2022-10-10T13:27:19.277Z,100872.50
2022-10-10T13:29:46.665Z,100836.56
2022-10-10T13:32:24.549Z,100865.97
2022-10-10T13:35:04.368Z,100864.91
2022-10-10T13:37:31.549Z,100848.34
2022-10-10T13:39:58.595Z,100842.00
2022-10-10T13:42:37.244Z,100851.84
2022-10-10T13:45:31.391Z,100836.50
2022-10-10T13:48:01.097Z,100856.25
2022-10-10T13:50:31.959Z,100833.03
2022-10-10T13:53:24.463Z,100842.06
2022-10-10T13:56:12.906Z,100826.56
2022-10-10T13:58:39.470Z,100844.19
2022-10-10T14:01:06.530Z,100773.22
2022-10-10T14:03:34.378Z,100797.84
2022-10-10T14:06:01.409Z,100809.06
2022-10-10T14:08:33.404Z,100778.50
2022-10-10T14:11:08.647Z,100785.94
2022-10-10T14:13:38.696Z,100821.13
2022-10-10T14:16:17.794Z,100817.44
2022-10-10T14:18:46.070Z,100822.81
2022-10-10T14:21:13.210Z,100821.88
2022-10-10T14:23:40.104Z,100819.22
2022-10-10T14:26:12.880Z,100798.78
2022-10-10T14:28:40.226Z,100798.34
2022-10-10T14:31:07.262Z,100816.47
2022-10-10T14:33:33.921Z,100796.13
2022-10-10T14:36:01.263Z,100811.97
2022-10-10T14:38:28.225Z,100811.59
2022-10-10T14:40:55.835Z,100786.72
2022-10-10T14:43:25.232Z,100769.44
2022-10-10T14:45:53.463Z,100812.25
2022-10-10T14:48:20.479Z,100793.44
2022-10-10T14:50:49.286Z,100803.44
2022-10-10T14:53:16.094Z,100798.13
2022-10-10T14:55:46.000Z,100771.13
2022-10-10T14:58:20.893Z,100808.28
2022-10-10T15:00:48.096Z,100813.25
2022-10-10T15:03:15.152Z,100787.75
2022-10-10T15:05:42.333Z,100808.59
2022-10-10T15:08:14.484Z,100800.72
2022-10-10T15:10:41.758Z,100792.31
2022-10-10T15:13:09.629Z,100765.56
2022-10-10T15:15:36.268Z,100771.44
2022-10-10T15:18:02.975Z,100799.94
2022-10-10T15:20:32.840Z,100809.91
2022-10-10T15:23:02.519Z,100779.13
2022-10-10T15:25:33.306Z,100808.63
2022-10-10T15:28:04.415Z,100783.84
2022-10-10T15:30:31.156Z,100814.56
2022-10-10T15:32:57.788Z,100737.63
2022-10-10T15:35:25.230Z,100793.91
2022-10-10T15:37:52.373Z,100762.88
2022-10-10T15:40:22.538Z,100790.16
2022-10-10T15:42:50.385Z,100814.63
2022-10-10T15:45:31.303Z,100799.34
2022-10-10T15:48:05.332Z,100802.31
2022-10-10T15:50:34.379Z,100780.03
2022-10-10T15:53:01.008Z,100781.41
2022-10-10T15:55:27.616Z,100800.00
2022-10-10T15:57:54.229Z,100796.50
2022-10-10T16:00:20.889Z,100781.53
2022-10-10T16:02:47.548Z,100797.81
2022-10-10T16:05:14.157Z,100794.84
2022-10-10T16:07:47.546Z,100821.31
2022-10-10T16:10:15.161Z,100790.88
2022-10-10T16:12:41.777Z,100713.81
2022-10-10T16:15:08.944Z,100750.69
2022-10-10T16:17:35.631Z,100714.91
2022-10-10T16:20:02.310Z,100791.94
2022-10-10T16:22:28.898Z,100797.25
2022-10-10T16:27:43.051Z,100812.78
2022-10-10T16:30:10.611Z,100814.94
2022-10-10T16:32:42.118Z,100793.31
2022-10-10T16:35:10.203Z,100801.72
2022-10-10T16:37:36.875Z,100793.28
2022-10-10T16:40:03.917Z,100817.97
2022-10-10T16:42:30.608Z,100821.75
2022-10-10T16:44:57.284Z,100821.19
2022-10-10T16:47:23.908Z,100799.09
2022-10-10T16:49:50.510Z,100810.94
2022-10-10T16:52:17.172Z,100825.22
2022-10-10T16:54:43.788Z,100824.94
2022-10-10T16:57:12.034Z,100747.75
2022-10-10T16:59:38.715Z,100764.66
2022-10-10T17:02:05.326Z,100806.22
2022-10-10T17:04:32.076Z,100820.50
2022-10-10T17:06:58.717Z,100837.28
2022-10-10T17:09:25.336Z,100820.66
2022-10-10T17:11:51.962Z,100830.69
2022-10-10T17:14:18.927Z,100858.53
2022-10-10T17:17:10.458Z,100825.22
2022-10-10T17:19:32.904Z,100806.47
2022-10-10T17:21:59.642Z,100845.63
2022-10-10T17:24:26.437Z,100833.75
2022-10-10T17:26:53.094Z,100831.31
2022-10-10T17:29:19.880Z,100837.34
2022-10-10T17:31:46.507Z,100856.69
2022-10-10T17:34:13.120Z,100837.88
2022-10-10T17:36:39.731Z,100834.66
2022-10-10T17:39:07.586Z,100839.53
2022-10-10T17:41:34.618Z,100819.88
2022-10-10T17:44:01.354Z,100861.97
2022-10-10T17:46:34.839Z,100843.50
2022-10-10T17:49:06.605Z,100865.59
2022-10-10T17:51:34.313Z,100866.06
2022-10-10T17:54:01.090Z,100854.25
2022-10-10T17:56:28.480Z,100825.31
2022-10-10T17:58:55.060Z,100868.75
2022-10-10T18:01:21.836Z,100845.72
2022-10-10T18:03:49.129Z,100864.56
2022-10-10T18:06:18.535Z,100848.41
2022-10-10T18:08:47.349Z,100863.09
2022-10-10T18:11:20.176Z,100866.84
2022-10-10T18:13:47.657Z,100858.88
2022-10-10T18:16:17.123Z,100809.66
2022-10-10T18:18:50.445Z,100861.97
2022-10-10T18:21:20.293Z,100845.53
2022-10-10T18:23:47.687Z,100855.06
2022-10-10T18:26:20.180Z,100775.94
2022-10-10T18:28:48.094Z,100790.91
2022-10-10T18:31:17.627Z,100861.00
2022-10-10T18:33:45.098Z,100863.69
2022-10-10T18:36:13.927Z,100844.91
2022-10-10T18:38:40.635Z,100818.50
2022-10-10T18:41:10.825Z,100864.34
2022-10-10T18:43:38.524Z,100848.38
2022-10-10T18:46:07.918Z,100866.28
2022-10-10T18:48:36.292Z,100751.41
2022-10-10T18:51:07.042Z,100866.47
2022-10-10T18:53:38.631Z,100712.47
2022-10-10T18:56:06.493Z,100858.03
2022-10-10T18:58:35.190Z,100860.94
2022-10-10T19:01:07.180Z,100855.00
2022-10-10T19:03:35.643Z,100834.78
2022-10-10T19:06:03.696Z,100843.59
2022-10-10T19:08:31.941Z,100751.31
2022-10-10T19:10:59.088Z,100849.59
2022-10-10T19:13:26.866Z,100855.56
2022-10-10T19:15:54.041Z,100860.19
2022-10-10T19:18:23.955Z,100853.31
2022-10-10T19:20:50.526Z,100856.94
2022-10-10T19:23:17.236Z,100838.94
2022-10-10T19:25:46.275Z,100847.25
2022-10-10T19:28:12.969Z,100823.25
2022-10-10T19:30:42.179Z,100849.03
2022-10-10T19:33:09.448Z,100853.50
2022-10-10T19:35:41.679Z,100849.19
2022-10-10T19:38:10.283Z,100827.78
2022-10-10T19:40:43.659Z,100790.84
2022-10-10T19:43:10.448Z,100797.94
2022-10-10T19:45:46.963Z,100848.88
2022-10-10T19:48:17.875Z,100842.16
2022-10-10T19:50:47.052Z,100849.81
2022-10-10T19:53:20.086Z,100848.88
2022-10-10T19:55:57.991Z,100834.81
2022-10-10T19:58:24.706Z,100827.56
2022-10-10T20:00:51.471Z,100778.88
2022-10-10T20:03:18.466Z,100734.75
2022-10-10T20:05:45.248Z,100806.78
2022-10-10T20:08:11.872Z,100820.63
2022-10-10T20:10:43.163Z,100775.16
2022-10-10T20:13:14.822Z,100841.38
2022-10-10T20:15:47.205Z,100843.09
2022-10-10T20:18:13.835Z,100820.53
2022-10-10T20:20:47.869Z,100809.31
2022-10-10T20:23:16.320Z,100837.69
2022-10-10T20:25:44.700Z,100842.69
2022-10-10T20:28:13.146Z,100825.47
2022-10-10T20:30:42.782Z,100820.94
2022-10-10T20:33:09.573Z,100827.38
2022-10-10T20:35:37.148Z,100834.03
2022-10-10T20:38:04.680Z,100820.06
2022-10-10T20:40:31.900Z,100812.19
2022-10-10T20:42:58.527Z,100817.31
2022-10-10T20:45:25.195Z,100816.25
2022-10-10T20:47:51.801Z,100811.34
2022-10-10T20:50:18.477Z,100820.66
2022-10-10T20:52:45.078Z,100825.75
2022-10-10T20:55:11.755Z,100819.72
2022-10-10T20:57:38.379Z,100820.47
2022-10-10T21:00:06.321Z,100831.50
2022-10-10T21:02:33.934Z,100804.75
2022-10-10T21:05:00.568Z,100806.47
2022-10-10T21:07:29.076Z,100813.34
2022-10-10T21:09:55.725Z,100816.13
2022-10-10T21:12:22.391Z,100723.84
2022-10-10T21:14:48.991Z,100819.16
2022-10-10T21:17:15.608Z,100811.63
2022-10-10T21:19:42.377Z,100817.56
2022-10-10T21:22:09.709Z,100790.88
2022-10-10T21:24:36.666Z,100824.44
2022-10-10T21:27:03.426Z,100818.84
2022-10-10T21:29:30.056Z,100819.75
2022-10-10T21:31:56.658Z,100728.56
2022-10-10T21:34:23.345Z,100817.38
2022-10-10T21:36:49.993Z,100800.38
2022-10-10T21:39:16.789Z,100798.75
2022-10-10T21:41:43.547Z,100794.56
2022-10-10T21:44:10.679Z,100818.88
2022-10-10T21:46:37.858Z,100820.16
2022-10-10T21:49:10.263Z,100821.84
2022-10-10T21:51:39.700Z,100766.75
2022-10-10T21:54:07.518Z,100820.81
2022-10-10T21:56:34.324Z,100795.25
2022-10-10T21:59:01.653Z,100809.25
2022-10-10T22:01:31.606Z,100816.81
2022-10-10T22:03:58.799Z,100805.69
2022-10-10T22:06:25.869Z,100810.69
2022-10-10T22:08:54.884Z,100808.59
2022-10-10T22:11:24.658Z,100805.50
2022-10-10T22:13:51.909Z,100820.19
2022-10-10T22:16:18.997Z,100736.00
2022-10-10T22:18:45.707Z,100810.06
2022-10-10T22:21:15.529Z,100822.34
2022-10-10T22:23:42.773Z,100809.22
2022-10-10T22:26:11.888Z,100824.19
2022-10-10T22:28:38.897Z,100807.03
2022-10-10T22:31:10.568Z,100817.38
2022-10-10T22:33:37.546Z,100739.44
2022-10-10T22:36:05.516Z,100799.63
2022-10-10T22:38:32.845Z,100795.22
2022-10-10T22:40:59.677Z,100796.13
2022-10-10T22:43:27.308Z,100790.22
2022-10-10T22:45:54.330Z,100792.84
2022-10-10T22:48:20.984Z,100779.13
2022-10-10T22:50:47.612Z,100754.16
2022-10-10T22:53:14.237Z,100797.44
2022-10-10T22:55:40.937Z,100811.47
2022-10-10T22:58:07.575Z,100737.19
2022-10-10T23:00:34.343Z,100777.81
2022-10-10T23:03:01.004Z,100776.81
2022-10-10T23:05:27.681Z,100793.38
2022-10-10T23:07:54.317Z,100755.03
2022-10-10T23:10:20.939Z,100792.94
2022-10-10T23:12:47.586Z,100813.69
2022-10-10T23:15:14.251Z,100814.75
2022-10-10T23:17:40.884Z,100795.91
2022-10-10T23:20:08.112Z,100792.47
2022-10-10T23:22:34.740Z,100809.16
2022-10-10T23:25:01.358Z,100812.06
2022-10-10T23:27:28.055Z,100792.38
2022-10-10T23:29:54.723Z,100790.88
2022-10-10T23:32:23.090Z,100793.50
2022-10-10T23:34:50.044Z,100803.13
2022-10-10T23:37:16.647Z,100802.41
2022-10-10T23:39:43.589Z,100773.63
2022-10-10T23:42:10.351Z,100807.06
2022-10-10T23:44:37.004Z,100777.66
2022-10-10T23:47:03.735Z,100771.69
2022-10-10T23:49:30.540Z,100775.13
2022-10-10T23:51:57.323Z,100807.16
2022-10-10T23:54:23.961Z,100801.84
2022-10-10T23:56:50.608Z,100806.16
2022-10-10T23:59:17.360Z,100772.50
